Time;durP1;ratioP1;P1;durP2;ratioP2;P2;SDS_P1;SDS_P2;PMS_P1;PMS_P2;Temp;Humidity;BMP_temperature;BMP_pressure;BME280_temperature;BME280_humidity;BME280_pressure;Samples;Min_cycle;Max_cycle;Signal;HPM_P1;HPM_P2
2024/04/14 00:00:51;;;;;;;0.30;0.30;;;;;;;;;;5328786;26;20244;-92
2024/04/14 00:03:20;;;;;;;0.30;0.30;;;;;;;;;;5324287;26;20245;-93
2024/04/14 00:05:46;;;;;;;0.30;0.30;;;;;;;;;;5324860;26;20264;-92
2024/04/14 00:08:13;;;;;;;11.23;0.67;;;;;;;;;;5324419;26;20315;-92
2024/04/14 00:10:39;;;;;;;0.50;0.50;;;;;;;;;;5300843;26;20268;-92
2024/04/14 00:13:11;;;;;;;1.40;0.63;;;;;;;;;;5301909;26;20244;-93
2024/04/14 00:15:37;;;;;;;0.57;0.47;;;;;;;;;;5330844;26;20241;-94
2024/04/14 00:18:09;;;;;;;0.20;0.20;;;;;;;;;;5300462;26;20752;-91
2024/04/14 00:20:35;;;;;;;0.10;0.10;;;;;;;;;;5324425;26;20349;-92
2024/04/14 00:23:01;;;;;;;0.67;0.67;;;;;;;;;;5297813;26;20269;-91
2024/04/14 00:25:27;;;;;;;2.70;1.37;;;;;;;;;;5324295;26;20264;-92
2024/04/14 00:27:54;;;;;;;0.30;0.30;;;;;;;;;;5314162;26;20249;-92
2024/04/14 00:30:23;;;;;;;7.93;1.57;;;;;;;;;;5323530;26;20337;-94
2024/04/14 00:32:50;;;;;;;1.70;0.40;;;;;;;;;;5327747;26;20310;-92
2024/04/14 00:35:18;;;;;;;0.30;0.30;;;;;;;;;;5327365;26;20268;-91
2024/04/14 00:37:47;;;;;;;0.10;0.10;;;;;;;;;;5356387;26;20307;-92
2024/04/14 00:40:14;;;;;;;0.63;0.63;;;;;;;;;;5316881;26;20304;-92
2024/04/14 00:42:40;;;;;;;0.20;0.20;;;;;;;;;;5323757;26;20367;-92
2024/04/14 00:45:06;;;;;;;0.00;0.00;;;;;;;;;;5351971;26;20797;-91
2024/04/14 00:47:33;;;;;;;0.60;0.60;;;;;;;;;;5293089;26;20339;-92
2024/04/14 00:49:59;;;;;;;0.20;0.20;;;;;;;;;;5323031;26;20319;-92
2024/04/14 00:52:25;;;;;;;0.23;0.23;;;;;;;;;;5317556;26;20620;-93
2024/04/14 00:54:55;;;;;;;0.50;0.50;;;;;;;;;;5291266;26;20248;-92
2024/04/14 00:57:24;;;;;;;0.20;0.20;;;;;;;;;;5326818;26;20248;-92
2024/04/14 00:59:50;;;;;;;1.43;1.33;;;;;;;;;;5336712;26;20267;-92
2024/04/14 01:02:16;;;;;;;0.10;0.10;;;;;;;;;;5324223;26;20272;-93
2024/04/14 01:04:42;;;;;;;0.10;0.10;;;;;;;;;;5327881;26;20312;-92
2024/04/14 01:07:16;;;;;;;0.07;0.07;;;;;;;;;;5323793;26;20236;-92
2024/04/14 01:09:42;;;;;;;0.40;0.40;;;;;;;;;;5321546;26;20293;-91
2024/04/14 01:12:13;;;;;;;0.10;0.10;;;;;;;;;;5320320;26;20384;-92
2024/04/14 01:14:39;;;;;;;0.40;0.40;;;;;;;;;;5326132;26;20268;-93
2024/04/14 01:17:06;;;;;;;0.20;0.20;;;;;;;;;;5327369;26;20306;-92
2024/04/14 01:19:34;;;;;;;0.10;0.10;;;;;;;;;;5355916;26;20291;-95
2024/04/14 01:22:00;;;;;;;0.30;0.30;;;;;;;;;;5321144;26;20287;-93
2024/04/14 01:24:28;;;;;;;3.30;0.30;;;;;;;;;;5325105;26;20592;-93
2024/04/14 01:26:57;;;;;;;0.20;0.20;;;;;;;;;;5329315;26;20742;-92
2024/04/14 01:29:26;;;;;;;0.60;0.60;;;;;;;;;;5323566;26;20333;-92
2024/04/14 01:31:57;;;;;;;1.07;1.00;;;;;;;;;;5326947;26;20310;-93
2024/04/14 01:34:26;;;;;;;1.80;0.53;;;;;;;;;;5293358;26;20260;-93
2024/04/14 01:36:53;;;;;;;0.13;0.13;;;;;;;;;;5324144;26;20288;-92
2024/04/14 01:39:19;;;;;;;0.20;0.20;;;;;;;;;;5336741;26;20941;-92
2024/04/14 01:41:45;;;;;;;1.63;1.53;;;;;;;;;;5324365;26;20268;-92
2024/04/14 01:44:14;;;;;;;0.10;0.10;;;;;;;;;;5326772;26;20268;-92
2024/04/14 01:46:40;;;;;;;0.00;0.00;;;;;;;;;;5325296;26;20299;-92
2024/04/14 01:49:06;;;;;;;1.37;0.67;;;;;;;;;;5325194;26;20346;-93
2024/04/14 01:51:35;;;;;;;0.50;0.37;;;;;;;;;;5324453;26;20275;-92
2024/04/14 01:54:01;;;;;;;0.10;0.10;;;;;;;;;;5322784;26;20265;-92
2024/04/14 01:56:30;;;;;;;0.40;0.40;;;;;;;;;;5326906;26;20297;-92
2024/04/14 01:58:56;;;;;;;0.20;0.20;;;;;;;;;;5296557;26;20269;-91
2024/04/14 02:01:25;;;;;;;0.30;0.30;;;;;;;;;;5329435;26;20302;-91
2024/04/14 02:03:54;;;;;;;0.10;0.10;;;;;;;;;;5327024;26;20296;-92
2024/04/14 02:06:23;;;;;;;25.30;1.80;;;;;;;;;;5299426;26;20625;-92
2024/04/14 02:08:54;;;;;;;2.70;2.07;;;;;;;;;;5321418;26;20264;-90
2024/04/14 02:11:24;;;;;;;0.10;0.10;;;;;;;;;;5324247;26;20606;-92
2024/04/14 02:13:50;;;;;;;1.93;0.47;;;;;;;;;;5317410;26;20631;-92
2024/04/14 02:16:19;;;;;;;1.10;1.03;;;;;;;;;;5318270;26;20276;-92
2024/04/14 02:18:50;;;;;;;4.10;1.07;;;;;;;;;;5323098;26;20248;-92
2024/04/14 02:21:16;;;;;;;0.40;0.40;;;;;;;;;;5355502;26;20298;-94
2024/04/14 02:23:43;;;;;;;1.03;0.30;;;;;;;;;;5325118;26;20280;-92
2024/04/14 02:26:09;;;;;;;6.53;1.43;;;;;;;;;;5325531;26;20719;-91
2024/04/14 02:28:35;;;;;;;8.80;0.73;;;;;;;;;;5298956;26;20356;-92
2024/04/14 02:31:02;;;;;;;1.27;0.53;;;;;;;;;;5322770;26;20247;-89
2024/04/14 02:33:28;;;;;;;7.37;0.27;;;;;;;;;;5324916;26;20345;-90
2024/04/14 02:35:55;;;;;;;0.73;0.73;;;;;;;;;;5355390;26;20265;-90
2024/04/14 02:38:21;;;;;;;0.27;0.27;;;;;;;;;;5323615;26;20296;-90
2024/04/14 02:40:55;;;;;;;0.20;0.20;;;;;;;;;;5322960;26;20308;-90
2024/04/14 02:43:21;;;;;;;0.97;0.97;;;;;;;;;;5326750;26;20790;-91
2024/04/14 02:45:47;;;;;;;0.47;0.47;;;;;;;;;;5322660;26;20245;-90
2024/04/14 02:48:13;;;;;;;0.87;0.87;;;;;;;;;;5320802;26;20307;-91
2024/04/14 02:50:40;;;;;;;0.57;0.50;;;;;;;;;;5320126;26;20268;-91
2024/04/14 02:53:10;;;;;;;0.77;0.77;;;;;;;;;;5320061;26;20265;-91
2024/04/14 02:55:39;;;;;;;0.20;0.20;;;;;;;;;;5326853;26;20261;-92
2024/04/14 02:58:05;;;;;;;0.10;0.10;;;;;;;;;;5322169;26;20240;-92
2024/04/14 03:00:34;;;;;;;1.13;1.13;;;;;;;;;;5322248;26;20253;-93
2024/04/14 03:03:00;;;;;;;0.50;0.50;;;;;;;;;;5323670;26;20339;-92
2024/04/14 03:05:29;;;;;;;7.50;1.13;;;;;;;;;;5351435;26;20269;-91
2024/04/14 03:07:56;;;;;;;0.53;0.53;;;;;;;;;;5320974;26;20269;-91
2024/04/14 03:10:22;;;;;;;0.70;0.70;;;;;;;;;;5326156;26;20311;-91
2024/04/14 03:12:51;;;;;;;1.50;0.57;;;;;;;;;;5355468;26;20258;-92
2024/04/14 03:15:17;;;;;;;0.63;0.63;;;;;;;;;;5323891;26;20269;-92
2024/04/14 03:17:43;;;;;;;13.77;2.10;;;;;;;;;;5324955;26;20269;-93
2024/04/14 03:20:15;;;;;;;0.17;0.17;;;;;;;;;;5324558;26;20256;-94
2024/04/14 03:22:41;;;;;;;12.83;0.70;;;;;;;;;;5326774;26;20268;-90
2024/04/14 03:25:10;;;;;;;0.40;0.40;;;;;;;;;;5328031;26;20283;-93
2024/04/14 03:27:36;;;;;;;1.80;1.03;;;;;;;;;;5323809;26;20585;-93
2024/04/14 03:30:02;;;;;;;0.30;0.30;;;;;;;;;;5320639;26;20381;-92
2024/04/14 03:32:28;;;;;;;0.70;0.30;;;;;;;;;;5326239;26;20265;-94
2024/04/14 03:34:54;;;;;;;0.33;0.33;;;;;;;;;;5314756;26;20256;-92
2024/04/14 03:37:21;;;;;;;0.60;0.60;;;;;;;;;;5326775;26;20269;-92
2024/04/14 03:39:47;;;;;;;5.07;0.73;;;;;;;;;;5301235;26;20232;-92
2024/04/14 03:42:15;;;;;;;0.57;0.40;;;;;;;;;;5326355;26;20295;-92
2024/04/14 03:44:41;;;;;;;0.20;0.20;;;;;;;;;;5320460;26;20302;-92
2024/04/14 03:47:17;;;;;;;9.00;1.33;;;;;;;;;;5320886;26;20263;-93
2024/04/14 03:49:43;;;;;;;0.10;0.10;;;;;;;;;;5329503;26;20344;-93
2024/04/14 03:52:09;;;;;;;6.23;0.63;;;;;;;;;;5331613;26;20276;-92
2024/04/14 03:54:37;;;;;;;1.60;1.13;;;;;;;;;;5328244;26;20295;-91
2024/04/14 03:57:04;;;;;;;1.80;0.63;;;;;;;;;;5325937;26;20269;-94
2024/04/14 03:59:30;;;;;;;0.20;0.20;;;;;;;;;;5325030;26;20264;-92
2024/04/14 04:01:57;;;;;;;0.10;0.10;;;;;;;;;;5322237;26;20786;-92
2024/04/14 04:04:25;;;;;;;7.83;0.60;;;;;;;;;;5323481;26;20293;-91
2024/04/14 04:06:51;;;;;;;0.60;0.60;;;;;;;;;;5323932;26;20233;-92
2024/04/14 04:09:21;;;;;;;0.20;0.20;;;;;;;;;;5324709;26;20336;-92
2024/04/14 04:11:49;;;;;;;0.53;0.40;;;;;;;;;;5325566;26;20303;-92
2024/04/14 04:14:15;;;;;;;1.70;1.23;;;;;;;;;;5322957;26;20372;-92
2024/04/14 04:16:43;;;;;;;1.17;0.57;;;;;;;;;;5328046;26;20264;-93
2024/04/14 04:19:09;;;;;;;0.30;0.30;;;;;;;;;;5322182;26;20257;-90
2024/04/14 04:21:38;;;;;;;0.93;0.90;;;;;;;;;;5352591;26;20241;-93
2024/04/14 04:24:04;;;;;;;2.00;1.30;;;;;;;;;;5337405;26;20272;-94
2024/04/14 04:26:31;;;;;;;0.47;0.47;;;;;;;;;;5324699;26;21091;-93
2024/04/14 04:28:57;;;;;;;0.20;0.20;;;;;;;;;;5328719;26;20719;-92
2024/04/14 04:31:24;;;;;;;0.20;0.20;;;;;;;;;;5324778;26;20310;-92
2024/04/14 04:33:50;;;;;;;0.57;0.30;;;;;;;;;;5337318;26;20248;-93
2024/04/14 04:36:20;;;;;;;0.70;0.50;;;;;;;;;;5315913;26;20591;-95
2024/04/14 04:38:46;;;;;;;0.37;0.37;;;;;;;;;;5328117;26;20291;-92
2024/04/14 04:41:15;;;;;;;2.83;0.90;;;;;;;;;;5355258;26;20265;-93
2024/04/14 04:43:42;;;;;;;0.20;0.20;;;;;;;;;;5313736;26;20295;-92
2024/04/14 04:46:10;;;;;;;0.60;0.60;;;;;;;;;;5322967;26;20335;-93
2024/04/14 04:48:38;;;;;;;0.40;0.40;;;;;;;;;;5327548;26;20609;-93
2024/04/14 04:51:04;;;;;;;0.30;0.30;;;;;;;;;;5326597;26;20268;-92
2024/04/14 04:53:30;;;;;;;0.30;0.30;;;;;;;;;;5327360;26;20268;-93
2024/04/14 04:55:59;;;;;;;0.53;0.53;;;;;;;;;;5351966;26;20727;-93
2024/04/14 04:58:25;;;;;;;7.63;0.50;;;;;;;;;;5345827;26;20265;-91
2024/04/14 05:00:58;;;;;;;0.60;0.60;;;;;;;;;;5326347;26;20252;-91
2024/04/14 05:03:24;;;;;;;0.17;0.17;;;;;;;;;;5352347;26;20248;-91
2024/04/14 05:06:09;;;;;;;0.20;0.20;;;;;;;;;;5325690;26;20845;-94
2024/04/14 05:08:49;;;;;;;0.63;0.63;;;;;;;;;;5352686;26;20267;-94
2024/04/14 05:11:18;;;;;;;0.20;0.20;;;;;;;;;;5354300;26;20269;-91
2024/04/14 05:13:45;;;;;;;0.27;0.27;;;;;;;;;;5352676;26;20303;-90
2024/04/14 05:16:13;;;;;;;1.93;1.40;;;;;;;;;;5321466;26;20267;-91
2024/04/14 05:18:40;;;;;;;0.20;0.20;;;;;;;;;;5323560;26;20362;-92
2024/04/14 05:21:11;;;;;;;0.50;0.50;;;;;;;;;;5325345;26;20265;-90
2024/04/14 05:23:39;;;;;;;4.13;0.43;;;;;;;;;;5337018;26;20304;-93
2024/04/14 05:26:05;;;;;;;0.20;0.20;;;;;;;;;;5315943;26;20256;-92
2024/04/14 05:28:32;;;;;;;0.10;0.10;;;;;;;;;;5325245;26;20268;-91
2024/04/14 05:30:58;;;;;;;0.57;0.50;;;;;;;;;;5323755;26;20249;-95
2024/04/14 05:33:26;;;;;;;3.40;0.87;;;;;;;;;;5324624;26;20346;-91
2024/04/14 05:35:56;;;;;;;0.53;0.30;;;;;;;;;;5327354;26;20264;-93
2024/04/14 05:38:22;;;;;;;4.70;1.33;;;;;;;;;;5332366;26;20269;-94
2024/04/14 05:40:51;;;;;;;0.10;0.10;;;;;;;;;;5334301;26;20265;-92
2024/04/14 05:43:17;;;;;;;0.10;0.10;;;;;;;;;;5350966;26;20258;-92
2024/04/14 05:46:03;;;;;;;3.73;1.43;;;;;;;;;;5320400;26;20283;-93
2024/04/14 05:48:29;;;;;;;5.03;0.60;;;;;;;;;;5350922;26;20236;-92
2024/04/14 05:50:58;;;;;;;4.07;0.30;;;;;;;;;;5324053;26;20380;-91
2024/04/14 05:53:25;;;;;;;1.33;0.60;;;;;;;;;;5324133;26;20265;-94
2024/04/14 05:55:51;;;;;;;0.30;0.30;;;;;;;;;;5325901;26;20361;-94
2024/04/14 05:58:20;;;;;;;0.47;0.47;;;;;;;;;;5324950;26;20324;-93
2024/04/14 06:00:50;;;;;;;0.17;0.17;;;;;;;;;;5325785;26;20246;-92
2024/04/14 06:03:17;;;;;;;0.30;0.30;;;;;;;;;;5296731;26;20267;-92
2024/04/14 06:05:48;;;;;;;0.37;0.37;;;;;;;;;;5325935;26;20296;-93
2024/04/14 06:08:14;;;;;;;1.50;0.73;;;;;;;;;;5325605;26;20657;-93
2024/04/14 06:10:46;;;;;;;3.93;0.30;;;;;;;;;;5329736;26;20265;-93
2024/04/14 06:13:15;;;;;;;3.40;0.67;;;;;;;;;;5325241;26;20245;-93
2024/04/14 06:15:45;;;;;;;0.20;0.20;;;;;;;;;;5310799;26;21142;-92
2024/04/14 06:18:16;;;;;;;0.43;0.43;;;;;;;;;;5330171;26;20289;-93
2024/04/14 06:21:00;;;;;;;0.70;0.70;;;;;;;;;;5354184;26;20265;-94
2024/04/14 06:23:26;;;;;;;0.43;0.43;;;;;;;;;;5327736;26;20287;-93
2024/04/14 06:25:54;;;;;;;0.13;0.13;;;;;;;;;;5327050;26;20378;-92
2024/04/14 06:28:21;;;;;;;0.50;0.33;;;;;;;;;;5328002;26;20255;-93
2024/04/14 06:30:50;;;;;;;4.73;0.30;;;;;;;;;;5336210;26;20738;-93
2024/04/14 06:33:21;;;;;;;1.50;0.93;;;;;;;;;;5337793;26;20373;-93
2024/04/14 06:35:50;;;;;;;3.03;0.50;;;;;;;;;;5325743;26;20265;-91
2024/04/14 06:38:22;;;;;;;2.20;0.87;;;;;;;;;;5328239;26;20323;-91
2024/04/14 06:40:49;;;;;;;2.60;0.43;;;;;;;;;;5295996;26;20320;-93
2024/04/14 06:43:16;;;;;;;0.43;0.17;;;;;;;;;;5323588;26;20269;-93
2024/04/14 06:45:50;;;;;;;1.43;0.50;;;;;;;;;;5326222;26;20949;-92
2024/04/14 06:48:19;;;;;;;0.43;0.43;;;;;;;;;;5325557;26;20932;-90
2024/04/14 06:50:46;;;;;;;0.33;0.33;;;;;;;;;;5324397;26;20276;-91
2024/04/14 06:53:22;;;;;;;2.40;0.80;;;;;;;;;;5361645;26;20259;-90
2024/04/14 06:55:58;;;;;;;0.20;0.20;;;;;;;;;;5326195;26;20276;-91
2024/04/14 06:58:24;;;;;;;1.40;0.30;;;;;;;;;;5278351;26;20333;-92
2024/04/14 07:00:54;;;;;;;0.80;0.50;;;;;;;;;;5328410;26;20260;-91
2024/04/14 07:03:25;;;;;;;1.30;0.73;;;;;;;;;;5373872;26;20237;-91
2024/04/14 07:05:52;;;;;;;3.00;0.83;;;;;;;;;;5347716;26;20252;-90
2024/04/14 07:08:19;;;;;;;0.60;0.30;;;;;;;;;;5326046;26;20342;-90
2024/04/14 07:10:50;;;;;;;13.37;1.40;;;;;;;;;;5329846;26;20273;-95
2024/04/14 07:13:27;;;;;;;0.53;0.53;;;;;;;;;;5284109;27;20779;-94
2024/04/14 07:15:54;;;;;;;1.67;0.60;;;;;;;;;;5205755;27;20238;-92
2024/04/14 07:18:25;;;;;;;3.20;0.73;;;;;;;;;;5260433;27;20238;-94
2024/04/14 07:21:01;;;;;;;0.40;0.40;;;;;;;;;;5246969;27;20861;-95
2024/04/14 07:23:30;;;;;;;1.20;0.60;;;;;;;;;;5229362;27;20425;-94
2024/04/14 07:25:56;;;;;;;2.40;0.83;;;;;;;;;;5256668;27;20323;-96
2024/04/14 07:28:23;;;;;;;3.30;0.50;;;;;;;;;;5222151;27;20841;-93
2024/04/14 07:30:52;;;;;;;0.77;0.47;;;;;;;;;;5255274;27;20255;-94
2024/04/14 07:33:18;;;;;;;0.40;0.40;;;;;;;;;;5231676;27;20239;-93
2024/04/14 07:35:48;;;;;;;2.73;0.40;;;;;;;;;;5253711;27;20266;-94
2024/04/14 07:38:14;;;;;;;0.97;0.50;;;;;;;;;;5254948;27;20302;-94
2024/04/14 07:40:46;;;;;;;1.00;0.80;;;;;;;;;;5256432;27;20300;-94
2024/04/14 07:43:12;;;;;;;0.40;0.40;;;;;;;;;;5254380;26;20274;-90
2024/04/14 07:45:46;;;;;;;1.07;0.50;;;;;;;;;;5305386;26;20331;-91
2024/04/14 07:48:12;;;;;;;2.80;1.10;;;;;;;;;;5274866;26;20265;-91
2024/04/14 07:50:42;;;;;;;1.17;0.80;;;;;;;;;;5277052;26;21430;-91
2024/04/14 07:53:08;;;;;;;6.97;1.20;;;;;;;;;;5332325;26;20261;-90
2024/04/14 07:55:37;;;;;;;2.43;0.70;;;;;;;;;;5332037;26;20324;-89
2024/04/14 07:58:04;;;;;;;2.03;0.53;;;;;;;;;;5294665;26;20269;-88
2024/04/14 08:00:30;;;;;;;0.90;0.53;;;;;;;;;;5276481;26;21096;-92
2024/04/14 08:02:56;;;;;;;3.07;0.73;;;;;;;;;;5244768;27;20266;-91
2024/04/14 08:05:23;;;;;;;1.40;0.80;;;;;;;;;;5241600;27;20305;-91
2024/04/14 08:07:49;;;;;;;2.70;0.80;;;;;;;;;;5253971;26;20304;-91
2024/04/14 08:10:15;;;;;;;0.60;0.60;;;;;;;;;;5276247;26;20280;-91
2024/04/14 08:12:41;;;;;;;1.27;0.70;;;;;;;;;;5275227;26;20477;-90
2024/04/14 08:15:07;;;;;;;1.17;1.07;;;;;;;;;;5274922;26;20829;-92
2024/04/14 08:17:34;;;;;;;2.77;1.03;;;;;;;;;;5290594;26;20364;-92
2024/04/14 08:20:11;;;;;;;1.20;1.10;;;;;;;;;;5268335;26;20277;-88
2024/04/14 08:22:37;;;;;;;0.70;0.70;;;;;;;;;;5256145;27;20316;-90
2024/04/14 08:25:04;;;;;;;0.67;0.67;;;;;;;;;;5243291;26;20246;-91
2024/04/14 08:27:30;;;;;;;3.47;1.57;;;;;;;;;;5282753;26;20276;-92
2024/04/14 08:29:56;;;;;;;2.40;0.97;;;;;;;;;;5270564;27;20301;-91
2024/04/14 08:32:22;;;;;;;0.53;0.50;;;;;;;;;;5269884;27;20317;-90
2024/04/14 08:34:49;;;;;;;1.30;0.60;;;;;;;;;;5269409;27;20292;-89
2024/04/14 08:37:15;;;;;;;1.23;0.63;;;;;;;;;;5243039;26;20281;-92
2024/04/14 08:39:41;;;;;;;3.70;0.87;;;;;;;;;;5229579;27;20250;-90
2024/04/14 08:42:13;;;;;;;1.03;1.03;;;;;;;;;;5269255;27;20266;-92
2024/04/14 08:44:39;;;;;;;2.93;1.03;;;;;;;;;;5229175;27;20266;-92
2024/04/14 08:47:06;;;;;;;3.40;0.57;;;;;;;;;;5241914;27;20703;-92
2024/04/14 08:49:32;;;;;;;2.17;0.77;;;;;;;;;;5308992;26;21343;-92
2024/04/14 08:51:59;;;;;;;0.40;0.40;;;;;;;;;;5305963;26;20250;-91
2024/04/14 08:54:26;;;;;;;1.17;0.90;;;;;;;;;;5340808;26;21336;-96
2024/04/14 08:56:55;;;;;;;1.03;0.80;;;;;;;;;;5329050;26;20264;-92
2024/04/14 08:59:28;;;;;;;1.03;0.50;;;;;;;;;;5367537;26;20268;-92
2024/04/14 09:01:54;;;;;;;1.13;0.40;;;;;;;;;;5333654;26;20302;-90
2024/04/14 09:04:20;;;;;;;1.70;0.93;;;;;;;;;;5305680;26;20301;-93
2024/04/14 09:06:48;;;;;;;2.87;1.00;;;;;;;;;;5358802;26;20295;-92
2024/04/14 09:09:14;;;;;;;1.57;0.83;;;;;;;;;;5332346;26;20264;-91
2024/04/14 09:11:51;;;;;;;2.10;0.80;;;;;;;;;;5334924;26;20749;-91
2024/04/14 09:14:17;;;;;;;3.00;0.80;;;;;;;;;;5340216;26;20266;-93
2024/04/14 09:16:50;;;;;;;0.90;0.70;;;;;;;;;;5339700;26;20267;-91
2024/04/14 09:19:22;;;;;;;0.60;0.50;;;;;;;;;;5305688;26;20285;-95
2024/04/14 09:21:48;;;;;;;6.63;1.43;;;;;;;;;;5331170;26;20318;-90
2024/04/14 09:24:14;;;;;;;2.70;0.73;;;;;;;;;;5329253;26;20272;-92
2024/04/14 09:26:43;;;;;;;7.80;0.83;;;;;;;;;;5341801;26;20294;-92
2024/04/14 09:29:09;;;;;;;2.57;1.10;;;;;;;;;;5333197;26;20267;-93
2024/04/14 09:31:36;;;;;;;1.90;0.87;;;;;;;;;;5326891;26;20628;-92
2024/04/14 09:34:05;;;;;;;2.53;0.80;;;;;;;;;;5333564;26;20893;-92
2024/04/14 09:36:31;;;;;;;0.50;0.40;;;;;;;;;;5344277;26;20342;-92
2024/04/14 09:38:59;;;;;;;2.77;0.63;;;;;;;;;;5301272;26;20356;-93
2024/04/14 09:41:26;;;;;;;1.33;1.23;;;;;;;;;;5339040;26;20261;-91
2024/04/14 09:43:56;;;;;;;10.70;1.00;;;;;;;;;;5299423;26;20649;-90
2024/04/14 09:46:22;;;;;;;6.10;0.90;;;;;;;;;;5337102;26;20280;-91
2024/04/14 09:48:51;;;;;;;2.93;0.80;;;;;;;;;;5325803;26;20248;-91
2024/04/14 09:51:26;;;;;;;0.90;0.77;;;;;;;;;;5338316;26;20317;-92
2024/04/14 09:53:53;;;;;;;0.83;0.40;;;;;;;;;;5350765;26;20531;-91
2024/04/14 09:56:23;;;;;;;0.73;0.73;;;;;;;;;;5318656;26;20252;-91
2024/04/14 09:58:50;;;;;;;1.83;0.83;;;;;;;;;;5311721;26;20819;-92
2024/04/14 10:01:23;;;;;;;1.20;0.60;;;;;;;;;;5323967;26;20265;-90
2024/04/14 10:03:55;;;;;;;0.70;0.70;;;;;;;;;;5354449;26;20355;-92
2024/04/14 10:06:27;;;;;;;0.60;0.60;;;;;;;;;;5324702;26;20240;-87
2024/04/14 10:09:02;;;;;;;4.37;1.23;;;;;;;;;;5323362;26;20280;-91
2024/04/14 10:11:28;;;;;;;0.73;0.50;;;;;;;;;;5321902;26;20382;-85
2024/04/14 10:13:55;;;;;;;4.60;0.60;;;;;;;;;;5317346;26;20260;-93
2024/04/14 10:16:22;;;;;;;0.67;0.60;;;;;;;;;;5335530;26;20806;-92
2024/04/14 10:18:49;;;;;;;1.67;0.30;;;;;;;;;;5327997;26;20248;-93
2024/04/14 10:21:17;;;;;;;0.70;0.70;;;;;;;;;;5354034;26;20320;-93
2024/04/14 10:23:48;;;;;;;1.80;0.30;;;;;;;;;;5328882;26;20352;-93
2024/04/14 10:26:18;;;;;;;0.80;0.30;;;;;;;;;;5326742;26;20372;-95
2024/04/14 10:28:56;;;;;;;1.70;1.43;;;;;;;;;;5327569;26;20267;-93
2024/04/14 10:31:26;;;;;;;0.40;0.40;;;;;;;;;;5325696;26;20267;-92
2024/04/14 10:34:05;;;;;;;1.97;0.57;;;;;;;;;;5328132;26;20253;-91
2024/04/14 10:36:31;;;;;;;2.00;0.80;;;;;;;;;;5331366;26;20279;-93
2024/04/14 10:38:59;;;;;;;3.17;0.63;;;;;;;;;;5321162;26;20319;-94
2024/04/14 10:41:32;;;;;;;1.00;0.80;;;;;;;;;;5333493;26;20748;-91
2024/04/14 10:43:59;;;;;;;1.70;0.80;;;;;;;;;;5328329;26;20307;-92
2024/04/14 10:46:26;;;;;;;7.97;1.60;;;;;;;;;;5323625;26;20329;-91
2024/04/14 10:48:58;;;;;;;0.30;0.30;;;;;;;;;;5324800;26;20249;-93
2024/04/14 10:51:24;;;;;;;4.90;1.70;;;;;;;;;;5309686;26;20245;-94
2024/04/14 10:53:53;;;;;;;0.70;0.70;;;;;;;;;;5327799;26;20276;-93
2024/04/14 10:56:24;;;;;;;0.40;0.40;;;;;;;;;;5356180;26;20832;-94
2024/04/14 10:58:58;;;;;;;3.30;0.97;;;;;;;;;;5324768;26;20306;-93
2024/04/14 11:01:30;;;;;;;1.90;0.77;;;;;;;;;;5320106;26;20264;-93
2024/04/14 11:03:57;;;;;;;2.33;1.20;;;;;;;;;;5308120;26;20303;-92
2024/04/14 11:06:26;;;;;;;1.83;0.90;;;;;;;;;;5355559;26;20278;-93
2024/04/14 11:08:52;;;;;;;0.83;0.83;;;;;;;;;;5298156;26;20664;-92
2024/04/14 11:11:24;;;;;;;0.63;0.60;;;;;;;;;;5324702;26;20927;-92
2024/04/14 11:13:50;;;;;;;2.00;1.80;;;;;;;;;;5337225;26;20309;-92
2024/04/14 11:16:18;;;;;;;2.17;0.63;;;;;;;;;;5329406;26;20333;-92
2024/04/14 11:18:47;;;;;;;1.10;1.00;;;;;;;;;;5327588;26;20894;-92
2024/04/14 11:21:23;;;;;;;1.57;1.20;;;;;;;;;;5352510;26;20963;-90
2024/04/14 11:23:52;;;;;;;5.83;0.60;;;;;;;;;;5328434;26;20705;-93
2024/04/14 11:26:18;;;;;;;3.43;0.57;;;;;;;;;;5334641;26;20313;-93
2024/04/14 11:28:48;;;;;;;3.97;0.87;;;;;;;;;;5332210;26;20261;-92
2024/04/14 11:31:17;;;;;;;2.63;0.77;;;;;;;;;;5313527;26;20268;-94
2024/04/14 11:33:46;;;;;;;4.03;1.23;;;;;;;;;;5324125;26;20791;-94
2024/04/14 11:36:14;;;;;;;1.17;0.67;;;;;;;;;;5324381;26;20244;-89
2024/04/14 11:38:44;;;;;;;1.93;1.30;;;;;;;;;;5328761;26;20245;-93
2024/04/14 11:41:13;;;;;;;1.97;1.50;;;;;;;;;;5354248;26;20814;-93
2024/04/14 11:43:41;;;;;;;1.43;1.13;;;;;;;;;;5324354;26;20680;-92
2024/04/14 11:46:10;;;;;;;1.90;1.20;;;;;;;;;;5328551;26;20264;-92
2024/04/14 11:48:36;;;;;;;1.00;0.40;;;;;;;;;;5357096;26;20264;-94
2024/04/14 11:51:02;;;;;;;4.50;1.03;;;;;;;;;;5323914;26;20572;-94
2024/04/14 11:53:31;;;;;;;3.40;0.40;;;;;;;;;;5345975;26;20630;-94
2024/04/14 11:56:00;;;;;;;2.53;0.43;;;;;;;;;;5326756;26;20384;-93
2024/04/14 11:58:26;;;;;;;0.47;0.47;;;;;;;;;;5354717;26;20269;-93
2024/04/14 12:00:55;;;;;;;2.10;0.57;;;;;;;;;;5353725;26;20269;-92
2024/04/14 12:03:21;;;;;;;9.27;1.87;;;;;;;;;;5339065;26;20269;-96
2024/04/14 12:05:51;;;;;;;0.20;0.20;;;;;;;;;;5324849;26;20768;-90
2024/04/14 12:08:20;;;;;;;6.23;1.47;;;;;;;;;;5324463;26;20367;-90
2024/04/14 12:10:46;;;;;;;1.20;1.10;;;;;;;;;;5323954;26;20300;-91
2024/04/14 12:13:13;;;;;;;3.57;0.20;;;;;;;;;;5324490;26;20278;-93
2024/04/14 12:15:39;;;;;;;5.87;0.73;;;;;;;;;;5295659;27;20382;-89
2024/04/14 12:18:23;;;;;;;1.77;0.47;;;;;;;;;;5242362;27;20258;-91
2024/04/14 12:20:50;;;;;;;3.43;0.60;;;;;;;;;;5269168;27;20258;-90
2024/04/14 12:23:21;;;;;;;1.80;0.73;;;;;;;;;;5268261;27;20266;-93
2024/04/14 12:25:47;;;;;;;1.77;0.67;;;;;;;;;;5297359;27;20242;-92
2024/04/14 12:28:13;;;;;;;2.17;1.10;;;;;;;;;;5239283;27;20396;-92
2024/04/14 12:30:39;;;;;;;0.43;0.30;;;;;;;;;;5225392;27;20254;-92
2024/04/14 12:33:06;;;;;;;1.53;0.83;;;;;;;;;;5296388;27;20318;-91
2024/04/14 12:35:32;;;;;;;2.10;0.70;;;;;;;;;;5269831;27;20258;-92
2024/04/14 12:37:58;;;;;;;0.63;0.63;;;;;;;;;;5297548;27;20242;-92
2024/04/14 12:40:27;;;;;;;0.73;0.67;;;;;;;;;;5269545;27;20289;-91
2024/04/14 12:42:53;;;;;;;2.47;1.20;;;;;;;;;;5200742;27;20293;-91
2024/04/14 12:45:19;;;;;;;10.03;1.00;;;;;;;;;;5271049;27;20304;-94
2024/04/14 12:47:45;;;;;;;1.37;0.57;;;;;;;;;;5345364;26;20299;-90
2024/04/14 12:50:11;;;;;;;3.37;1.00;;;;;;;;;;5324515;26;20269;-92
2024/04/14 12:52:37;;;;;;;1.47;0.37;;;;;;;;;;5327045;26;21408;-89
2024/04/14 12:55:04;;;;;;;0.70;0.53;;;;;;;;;;5300845;26;20268;-93
2024/04/14 12:57:33;;;;;;;2.43;1.07;;;;;;;;;;5328196;26;20277;-92
2024/04/14 13:00:00;;;;;;;2.40;0.90;;;;;;;;;;5321450;26;20302;-93
2024/04/14 13:02:26;;;;;;;6.43;1.50;;;;;;;;;;5353707;26;20261;-90
2024/04/14 13:04:52;;;;;;;1.27;1.17;;;;;;;;;;5323379;26;20370;-92
2024/04/14 13:07:18;;;;;;;2.13;0.87;;;;;;;;;;5300831;26;20244;-92
2024/04/14 13:09:44;;;;;;;6.90;0.80;;;;;;;;;;5352153;26;20268;-92
2024/04/14 13:12:11;;;;;;;1.33;1.23;;;;;;;;;;5325647;26;20272;-93
2024/04/14 13:14:37;;;;;;;0.83;0.40;;;;;;;;;;5326934;26;21667;-93
2024/04/14 13:17:03;;;;;;;0.50;0.30;;;;;;;;;;5322817;26;20248;-91
2024/04/14 13:19:32;;;;;;;2.67;1.07;;;;;;;;;;5327166;26;20638;-93
2024/04/14 13:21:59;;;;;;;0.50;0.47;;;;;;;;;;5322142;26;20560;-92
2024/04/14 13:24:25;;;;;;;13.13;1.13;;;;;;;;;;5256298;27;20304;-92
2024/04/14 13:26:51;;;;;;;4.73;0.80;;;;;;;;;;5196048;27;20267;-91
2024/04/14 13:29:18;;;;;;;2.03;0.63;;;;;;;;;;5229712;27;20314;-91
2024/04/14 13:31:46;;;;;;;0.40;0.40;;;;;;;;;;5236875;27;20285;-91
2024/04/14 13:34:13;;;;;;;1.60;0.97;;;;;;;;;;5225767;27;20607;-92
2024/04/14 13:36:39;;;;;;;1.50;1.40;;;;;;;;;;5250702;27;20274;-92
2024/04/14 13:39:06;;;;;;;3.57;1.03;;;;;;;;;;5236553;27;20366;-92
2024/04/14 13:41:34;;;;;;;5.00;0.83;;;;;;;;;;5266096;27;20739;-92
2024/04/14 13:44:00;;;;;;;0.53;0.40;;;;;;;;;;5230057;27;20327;-92
2024/04/14 13:46:27;;;;;;;1.70;0.40;;;;;;;;;;5201232;27;20246;-92
2024/04/14 13:48:56;;;;;;;3.40;0.93;;;;;;;;;;5282516;27;20265;-93
2024/04/14 13:51:28;;;;;;;0.47;0.47;;;;;;;;;;5227809;27;20698;-94
2024/04/14 13:53:54;;;;;;;1.67;1.57;;;;;;;;;;5221203;27;20306;-93
2024/04/14 13:56:24;;;;;;;0.93;0.53;;;;;;;;;;5344660;26;20335;-93
2024/04/14 13:58:52;;;;;;;0.40;0.30;;;;;;;;;;5301869;26;20618;-88
2024/04/14 14:01:20;;;;;;;0.60;0.40;;;;;;;;;;5338313;26;20758;-92
2024/04/14 14:03:46;;;;;;;1.67;1.27;;;;;;;;;;5335125;26;20739;-90
2024/04/14 14:06:15;;;;;;;0.93;0.67;;;;;;;;;;5322898;26;20713;-89
2024/04/14 14:08:43;;;;;;;1.03;1.03;;;;;;;;;;5354789;26;20261;-94
2024/04/14 14:11:12;;;;;;;3.87;0.63;;;;;;;;;;5337849;26;20291;-93
2024/04/14 14:13:47;;;;;;;2.13;1.33;;;;;;;;;;5324197;26;20253;-93
2024/04/14 14:16:14;;;;;;;2.77;0.53;;;;;;;;;;5315982;26;20274;-92
2024/04/14 14:18:45;;;;;;;7.00;0.57;;;;;;;;;;5327730;26;21333;-93
2024/04/14 14:21:12;;;;;;;1.53;0.50;;;;;;;;;;5321507;26;20475;-91
2024/04/14 14:23:40;;;;;;;3.40;0.63;;;;;;;;;;5324087;26;20751;-92
2024/04/14 14:26:09;;;;;;;5.87;0.90;;;;;;;;;;5325771;26;20269;-92
2024/04/14 14:28:38;;;;;;;0.70;0.40;;;;;;;;;;5348984;26;20282;-91
2024/04/14 14:31:06;;;;;;;2.13;0.70;;;;;;;;;;5337547;26;20284;-93
2024/04/14 14:36:37;;;;;;;12.77;1.03;;;;;;;;;;5355618;26;20739;-93
2024/04/14 14:39:04;;;;;;;0.30;0.30;;;;;;;;;;5367149;26;20293;-93
2024/04/14 14:41:33;;;;;;;0.30;0.30;;;;;;;;;;5334432;26;20369;-93
2024/04/14 14:43:59;;;;;;;0.50;0.33;;;;;;;;;;5325404;26;20732;-92
2024/04/14 14:46:26;;;;;;;1.80;0.50;;;;;;;;;;5323542;26;20279;-92
2024/04/14 14:48:55;;;;;;;1.33;1.23;;;;;;;;;;5313940;26;20297;-93
2024/04/14 14:51:21;;;;;;;2.43;0.30;;;;;;;;;;5320202;26;20741;-90